Time;durP1;ratioP1;P1;durP2;ratioP2;P2;SDS_P1;SDS_P2;PMS_P1;PMS_P2;Temp;Humidity;BMP_temperature;BMP_pressure;BME280_temperature;BME280_humidity;BME280_pressure;Samples;Min_cycle;Max_cycle;Signal;HPM_P1;HPM_P2
2022/10/05 07:24:03;;;;;;;6.97;2.63;;;;;;;14.39;69.80;97099.88;2107488;28;20592;-67
2022/10/05 07:25:17;;;;;;;5.00;2.72;;;;;;;15.13;67.93;97101.16;2110607;28;20286;-67
2022/10/05 07:26:37;;;;;;;4.95;2.60;;;;;;;14.79;68.55;97098.63;2093518;28;20281;-67
2022/10/05 07:28:01;;;;;;;7.35;2.80;;;;;;;15.11;68.02;97093.34;2110648;28;20190;-67
2022/10/05 07:29:27;;;;;;;9.68;3.38;;;;;;;15.26;67.22;97103.94;2107985;28;20195;-68
2022/10/05 07:30:34;;;;;;;4.35;2.30;;;;;;;15.22;68.38;97095.38;2107357;28;20198;-68
2022/10/05 07:32:02;;;;;;;4.55;2.22;;;;;;;15.31;68.95;97100.13;2106873;28;20279;-67
2022/10/05 07:33:17;;;;;;;10.85;2.85;;;;;;;15.59;68.69;97103.81;2104850;28;20297;-67
2022/10/05 07:34:33;;;;;;;10.07;3.72;;;;;;;15.71;69.04;97088.25;2111235;28;20194;-68
2022/10/05 07:38:39;;;;;;;8.18;2.53;;;;;;;16.92;65.39;97110.88;2113238;28;20245;-67
2022/10/05 07:39:50;;;;;;;11.40;2.63;;;;;;;17.82;61.21;97107.75;2106635;28;20199;-68
2022/10/05 07:41:21;;;;;;;9.57;2.50;;;;;;;17.86;60.64;97114.53;2104710;28;20256;-68
2022/10/05 07:55:14;;;;;;;7.90;2.20;;;;;;;18.70;60.13;97112.38;2070400;27;1228873;-65
2022/10/05 07:56:24;;;;;;;13.23;3.58;;;;;;;18.57;59.74;97112.38;2105074;28;20587;-65
2022/10/05 07:57:31;;;;;;;7.38;2.63;;;;;;;19.00;59.11;97116.47;2091731;28;20662;-65
2022/10/05 07:58:39;;;;;;;8.27;2.72;;;;;;;18.15;61.38;97114.41;2089694;28;20258;-66
2022/10/05 08:00:00;;;;;;;5.47;2.30;;;;;;;18.72;60.02;97118.41;2089277;28;20351;-66
2022/10/05 08:01:07;;;;;;;11.73;2.35;;;;;;;18.98;59.31;97116.59;2088778;28;20207;-67
2022/10/05 08:02:31;;;;;;;10.13;2.70;;;;;;;17.95;62.06;97114.78;2087010;28;20250;-70
2022/10/05 08:03:42;;;;;;;10.65;2.70;;;;;;;18.40;62.18;97113.56;2097941;28;20248;-76
2022/10/05 08:04:57;;;;;;;11.43;2.90;;;;;;;18.30;62.14;97118.63;2091350;28;20222;-74
2022/10/05 08:06:02;;;;;;;7.05;2.70;;;;;;;19.56;59.27;97111.50;2090901;28;20195;-69
2022/10/05 08:07:08;;;;;;;14.32;3.08;;;;;;;20.91;55.95;97114.59;2086913;28;20849;-68
2022/10/05 08:08:14;;;;;;;9.38;2.95;;;;;;;19.66;57.88;97114.31;2098501;28;20361;-69
2022/10/05 08:09:45;;;;;;;5.75;1.95;;;;;;;19.53;58.90;97118.84;2092143;28;20207;-69
2022/10/05 08:11:17;;;;;;;4.60;2.00;;;;;;;19.16;59.88;97118.84;2091387;28;20188;-69
2022/10/05 08:12:27;;;;;;;5.95;1.95;;;;;;;19.61;59.23;97118.28;2090012;28;20323;-69
2022/10/05 08:13:38;;;;;;;3.00;2.00;;;;;;;20.59;57.90;97109.16;2090769;28;20230;-68
2022/10/05 08:14:56;;;;;;;7.57;2.40;;;;;;;20.86;56.15;97117.63;2090470;28;20560;-69
2022/10/05 08:16:02;;;;;;;8.73;2.00;;;;;;;20.55;56.79;97117.34;2091195;28;20742;-70
2022/10/05 08:17:16;;;;;;;12.13;2.20;;;;;;;20.35;56.30;97095.03;2089169;28;20239;-70
2022/10/05 08:18:20;;;;;;;10.57;2.75;;;;;;;21.62;56.11;97113.41;2090838;28;20230;-69
2022/10/05 08:19:32;;;;;;;10.10;2.20;;;;;;;22.58;52.69;97110.75;2088841;28;20204;-68
2022/10/05 08:20:47;;;;;;;21.20;2.92;;;;;;;22.27;51.97;97121.31;2090105;28;20571;-68
2022/10/05 08:21:56;;;;;;;22.77;2.92;;;;;;;21.96;54.43;97116.75;2077283;28;20632;-68
2022/10/05 08:23:09;;;;;;;22.13;2.53;;;;;;;22.78;52.74;97107.19;2078816;28;20284;-69
2022/10/05 08:24:33;;;;;;;15.27;2.33;;;;;;;23.80;51.24;97111.47;2091871;28;20562;-68
2022/10/05 08:25:40;;;;;;;15.67;2.57;;;;;;;23.19;50.53;97115.19;2090478;28;20940;-68
2022/10/05 08:26:58;;;;;;;8.13;1.93;;;;;;;22.38;51.60;97107.13;2080930;28;20552;-68
2022/10/05 08:28:19;;;;;;;13.40;2.57;;;;;;;22.30;54.72;97113.09;2089713;28;20479;-69
2022/10/05 08:29:34;;;;;;;7.77;1.90;;;;;;;22.50;53.00;97114.06;2089886;28;20560;-68
2022/10/05 08:31:00;;;;;;;5.50;2.00;;;;;;;23.52;50.69;97102.50;2090181;28;20837;-67
2022/10/05 08:32:10;;;;;;;5.83;2.10;;;;;;;24.27;50.81;97109.94;2081234;28;20491;-68
2022/10/05 08:33:17;;;;;;;5.07;1.70;;;;;;;24.38;51.09;97108.91;2089603;28;20508;-68
2022/10/05 08:35:00;;;;;;;3.33;1.30;;;;;;;23.56;50.94;97108.41;2090250;28;20543;-68
2022/10/05 08:42:49;;;;;;;8.93;1.10;;;;;;;24.50;46.05;97097.09;2089398;28;20772;-69
2022/10/05 08:43:59;;;;;;;5.80;1.53;;;;;;;24.59;45.54;97104.25;2090770;28;20421;-69
2022/10/05 08:45:35;;;;;;;3.27;1.53;;;;;;;25.47;45.28;97103.03;2089777;28;20433;-69
2022/10/05 08:47:13;;;;;;;1.77;1.20;;;;;;;25.40;44.93;97104.63;2089712;28;20453;-69
2022/10/05 08:48:52;;;;;;;2.33;1.57;;;;;;;23.49;49.32;97110.78;2082396;28;20469;-69
2022/10/05 08:50:11;;;;;;;4.17;1.97;;;;;;;22.69;50.24;97109.81;2089950;28;20461;-69
2022/10/05 08:51:35;;;;;;;2.90;1.80;;;;;;;23.20;49.23;97106.25;2085938;28;20433;-70
2022/10/05 08:53:11;;;;;;;4.90;1.73;;;;;;;24.22;49.29;97112.19;2091230;28;21027;-71
2022/10/05 08:54:12;;;;;;;5.10;1.65;;;;;;;25.85;45.03;97110.91;2092086;28;20520;-72
2022/10/05 08:55:27;;;;;;;9.50;1.70;;;;;;;25.12;44.67;97109.13;2097788;28;20880;-72
2022/10/05 08:56:51;;;;;;;2.57;1.60;;;;;;;26.09;45.65;97107.63;2085191;28;20450;-80
2022/10/05 08:58:10;;;;;;;3.00;1.10;;;;;;;26.45;43.21;97112.06;2092442;28;20973;-76
2022/10/05 08:59:12;;;;;;;6.80;1.67;;;;;;;26.89;42.14;97107.50;2096258;28;20853;-79
2022/10/05 09:00:32;;;;;;;5.17;1.60;;;;;;;24.69;46.58;97098.06;2099774;28;20519;-77
2022/10/05 09:01:43;;;;;;;12.20;1.60;;;;;;;25.45;45.20;97105.00;2097276;28;21572;-79
2022/10/05 09:03:16;;;;;;;4.53;2.00;;;;;;;25.07;47.07;97109.56;2100785;28;20463;-75
2022/10/05 09:04:33;;;;;;;2.47;1.43;;;;;;;24.24;46.82;97097.72;2101789;28;20432;-79
2022/10/05 09:05:55;;;;;;;27.20;2.07;;;;;;;25.19;45.85;97103.03;2095757;28;20461;-77
2022/10/05 09:12:06;;;;;;;4.13;1.90;;;;;;;26.63;45.78;97098.63;2083515;28;20263;-77
2022/10/05 09:13:25;;;;;;;2.75;1.20;;;;;;;28.19;40.41;97099.09;2094982;28;20279;-76
2022/10/05 09:14:38;;;;;;;2.33;1.45;;;;;;;28.19;40.95;97099.09;2093141;28;22158;-77
2022/10/05 09:15:42;;;;;;;4.60;1.60;;;;;;;28.52;39.10;97101.72;2091620;28;20195;-76
2022/10/05 09:16:51;;;;;;;4.30;1.93;;;;;;;27.83;41.89;97090.50;2091072;28;20531;-74
2022/10/05 09:18:17;;;;;;;3.83;1.77;;;;;;;26.02;44.71;97095.84;2094244;28;20499;-74
2022/10/05 09:19:39;;;;;;;2.92;1.55;;;;;;;28.31;41.02;97090.69;2094337;28;20512;-74
2022/10/05 09:21:22;;;;;;;3.33;1.83;;;;;;;28.61;39.43;97094.50;2093902;28;20720;-74
2022/10/05 09:22:40;;;;;;;5.87;1.50;;;;;;;28.42;39.48;97097.56;2083801;28;21064;-74
2022/10/05 09:23:43;;;;;;;5.17;1.27;;;;;;;27.39;40.99;97099.66;2075815;28;20523;-72
2022/10/05 09:25:16;;;;;;;4.70;1.50;;;;;;;27.84;41.39;97095.69;2080696;28;20525;-73
2022/10/05 09:26:36;;;;;;;2.77;1.57;;;;;;;27.50;41.10;97095.81;2096003;28;20436;-72
2022/10/05 09:27:45;;;;;;;3.27;1.43;;;;;;;27.31;41.20;97081.69;2095911;28;20524;-73
2022/10/05 09:29:23;;;;;;;2.63;1.40;;;;;;;26.59;43.71;97092.75;2092764;28;20432;-72
2022/10/05 09:48:54;;;;;;;3.90;1.48;;;;;;;27.54;39.88;97081.06;2092541;28;20200;-71
2022/10/05 09:50:21;;;;;;;3.55;1.33;;;;;;;28.34;39.73;97080.44;2093003;28;20278;-71
2022/10/05 09:51:44;;;;;;;3.60;1.55;;;;;;;27.39;41.52;97083.59;2084888;28;20191;-72
2022/10/05 09:53:04;;;;;;;8.55;5.28;;;;;;;28.14;40.20;97084.50;2091862;28;20192;-72
2022/10/05 09:54:47;;;;;;;3.50;1.30;;;;;;;26.29;42.57;97086.03;2093056;28;20204;-71
2022/10/05 09:56:04;;;;;;;7.75;1.85;;;;;;;27.28;42.00;97082.00;2093549;28;20207;-75
2022/10/05 09:57:38;;;;;;;6.88;1.83;;;;;;;26.70;42.59;97068.38;2083081;28;20700;-73
2022/10/05 09:59:17;;;;;;;3.88;1.40;;;;;;;27.68;40.79;97075.06;2092005;28;20291;-72
2022/10/05 10:00:45;;;;;;;2.53;1.20;;;;;;;26.74;41.83;97063.56;2093050;28;20847;-72
2022/10/05 10:02:29;;;;;;;8.23;1.23;;;;;;;26.84;42.59;97066.09;2092662;28;20262;-71
2022/10/05 10:04:08;;;;;;;3.00;1.38;;;;;;;28.42;40.21;97063.50;2091967;28;20524;-72
2022/10/05 10:05:30;;;;;;;3.67;1.10;;;;;;;28.87;39.09;97065.72;2089991;28;20207;-73
2022/10/05 10:25:17;;;;;;;3.30;1.10;;;;;;;29.97;37.49;97049.44;2093419;28;20175;-70
2022/10/05 10:26:53;;;;;;;3.30;1.55;;;;;;;30.42;36.02;97048.69;2090087;28;20745;-70
2022/10/05 10:28:06;;;;;;;2.33;1.13;;;;;;;30.31;36.57;97047.31;2093293;28;20208;-71
2022/10/05 10:29:35;;;;;;;4.05;1.15;;;;;;;30.54;36.25;97039.16;2092948;28;20240;-70
2022/10/05 10:30:55;;;;;;;2.35;1.10;;;;;;;30.37;36.55;97051.09;2093075;28;20286;-71
2022/10/05 10:32:29;;;;;;;5.40;1.20;;;;;;;29.42;36.53;97048.69;2091989;28;20292;-69
2022/10/05 10:33:55;;;;;;;2.00;1.10;;;;;;;29.29;37.78;97049.25;2091912;28;20291;-70
2022/10/05 10:35:20;;;;;;;3.58;1.30;;;;;;;28.65;38.83;97042.09;2091962;28;20212;-70
2022/10/05 10:36:40;;;;;;;4.28;1.13;;;;;;;27.75;40.12;97035.00;2082569;28;20216;-71
2022/10/05 10:38:19;;;;;;;2.20;1.50;;;;;;;28.21;39.57;97030.97;2091153;28;20200;-70
2022/10/05 10:39:58;;;;;;;3.13;1.30;;;;;;;28.33;39.08;97032.31;2089650;28;20234;-71
2022/10/05 10:41:48;;;;;;;7.90;1.73;;;;;;;28.63;38.95;97033.38;2091983;28;20666;-70
2022/10/05 10:43:04;;;;;;;5.22;1.75;;;;;;;29.73;37.30;97030.81;2081826;28;20231;-70
2022/10/05 10:44:40;;;;;;;2.10;1.13;;;;;;;29.29;37.60;97034.97;2092898;28;20227;-70
2022/10/05 10:46:13;;;;;;;4.78;1.23;;;;;;;28.62;38.69;97037.09;2093843;28;20206;-70
2022/10/05 10:47:14;;;;;;;3.05;1.25;;;;;;;28.36;38.85;97029.25;2088293;28;20250;-70
2022/10/05 10:55:06;;;;;;;3.55;1.50;;;;;;;29.32;38.76;97026.56;2090922;28;20239;-70
2022/10/05 10:56:40;;;;;;;2.80;1.45;;;;;;;28.92;38.82;97031.13;2091820;28;20287;-69
2022/10/05 10:58:23;;;;;;;1.85;1.20;;;;;;;29.24;39.19;97018.50;2071334;28;20292;-70
2022/10/05 10:59:45;;;;;;;8.73;1.67;;;;;;;27.64;41.79;97024.59;2093287;28;20750;-71
2022/10/05 11:01:28;;;;;;;4.28;1.20;;;;;;;26.18;43.97;97020.22;2092985;28;20234;-73
2022/10/05 11:02:36;;;;;;;1.60;0.98;;;;;;;27.59;42.24;97021.59;2083231;28;20319;-72
2022/10/05 11:04:29;;;;;;;2.63;1.58;;;;;;;26.66;42.82;97021.47;2092077;28;20237;-72
2022/10/05 11:05:31;;;;;;;2.47;1.25;;;;;;;26.58;43.77;97018.78;2085143;28;20298;-72
2022/10/05 11:06:37;;;;;;;3.58;1.30;;;;;;;27.17;42.82;97008.13;2081894;28;20683;-72
2022/10/05 11:07:53;;;;;;;2.85;1.20;;;;;;;27.75;41.53;97008.19;2098197;28;20274;-71
2022/10/05 11:09:13;;;;;;;8.98;1.60;;;;;;;27.38;42.40;97018.34;2095556;28;20199;-72
2022/10/05 11:10:36;;;;;;;4.30;1.73;;;;;;;25.54;45.60;97012.38;2091701;28;20198;-72
2022/10/05 11:12:01;;;;;;;7.25;1.83;;;;;;;27.19;43.40;97016.81;2080642;28;20734;-71
2022/10/05 11:13:24;;;;;;;3.45;1.50;;;;;;;27.63;42.17;97007.69;2091979;28;20761;-71
2022/10/05 11:15:07;;;;;;;3.38;1.60;;;;;;;26.67;44.36;97008.94;2090829;28;20223;-72
2022/10/05 11:16:36;;;;;;;4.78;1.60;;;;;;;27.25;42.63;97014.47;2091314;28;20207;-71
2022/10/05 11:17:57;;;;;;;7.07;1.45;;;;;;;26.24;44.16;97016.91;2091177;28;20635;-72
2022/10/05 11:42:02;;;;;;;2.50;1.40;;;;;;;27.25;43.59;96975.13;2081411;28;20184;-71
2022/10/05 11:43:41;;;;;;;5.68;1.63;;;;;;;27.57;43.12;96981.53;2089138;28;20192;-71
2022/10/05 11:45:17;;;;;;;1.70;1.00;;;;;;;27.05;44.23;96980.78;2099992;28;20191;-70
2022/10/05 11:46:34;;;;;;;2.55;1.27;;;;;;;27.35;44.00;96983.00;2095483;28;20786;-70
2022/10/05 11:47:55;;;;;;;7.68;1.10;;;;;;;28.40;42.46;96987.63;2091813;28;20637;-71
2022/10/05 11:54:05;;;;;;;5.15;1.42;;;;;;;27.82;43.21;96977.00;2092104;28;20670;-71
2022/10/05 11:55:22;;;;;;;6.80;1.65;;;;;;;27.82;43.31;96977.00;2091785;28;20260;-71
2022/10/05 11:56:40;;;;;;;8.30;1.40;;;;;;;27.15;44.54;96966.41;2081698;28;20287;-71
2022/10/05 11:57:45;;;;;;;3.55;1.50;;;;;;;27.23;43.57;96961.03;2090733;28;20296;-71
2022/10/05 11:59:19;;;;;;;5.70;1.20;;;;;;;27.79;43.06;96971.13;2090297;28;20192;-71
2022/10/05 12:12:25;;;;;;;2.78;1.20;;;;;;;28.83;42.21;96971.19;2081516;28;20171;-66
2022/10/05 12:13:44;;;;;;;3.60;1.40;;;;;;;28.14;42.81;96964.56;2090164;28;20257;-67
2022/10/05 12:14:55;;;;;;;3.17;1.50;;;;;;;27.78;42.73;96959.56;2090695;28;20192;-68
2022/10/05 12:15:59;;;;;;;5.45;1.33;;;;;;;28.09;42.31;96958.88;2093344;28;20199;-69
2022/10/05 12:17:03;;;;;;;7.82;1.35;;;;;;;28.46;42.16;96964.63;2091139;28;20234;-68
2022/10/05 12:18:19;;;;;;;1.77;1.13;;;;;;;27.81;43.34;96955.72;2090841;28;20207;-69
2022/10/05 12:19:30;;;;;;;10.85;1.55;;;;;;;28.36;41.97;96962.13;2091884;28;20297;-69
2022/10/05 12:20:39;;;;;;;2.40;1.20;;;;;;;28.64;41.85;96946.41;2091327;28;20342;-69
2022/10/05 12:21:58;;;;;;;3.80;1.30;;;;;;;28.98;41.25;96966.75;2083207;28;25422;-69
2022/10/05 12:23:19;;;;;;;2.08;1.20;;;;;;;28.46;40.95;96962.78;2098382;28;20279;-66
2022/10/05 12:25:12;;;;;;;1.25;0.93;;;;;;;28.32;41.63;96958.13;2090960;28;20203;-64
2022/10/05 12:26:47;;;;;;;4.38;1.83;;;;;;;28.51;42.03;96959.56;2090869;28;20243;-64
2022/10/05 12:27:52;;;;;;;3.83;2.67;;;;;;;28.77;41.00;96953.94;2093445;28;20204;-64
2022/10/05 12:29:12;;;;;;;6.32;3.83;;;;;;;28.50;41.21;96949.84;2092934;28;20393;-65
2022/10/05 12:30:15;;;;;;;4.75;3.15;;;;;;;28.91;41.08;96955.03;2090923;28;20200;-64
2022/10/05 12:31:28;;;;;;;3.85;1.90;;;;;;;29.50;42.46;96956.34;2092731;28;20279;-65
2022/10/05 12:32:37;;;;;;;6.25;1.30;;;;;;;29.75;40.00;96954.28;2091927;28;20216;-65
2022/10/05 12:33:53;;;;;;;2.75;1.10;;;;;;;29.42;39.43;96953.69;2092210;28;20279;-65
2022/10/05 12:35:15;;;;;;;2.90;1.52;;;;;;;29.10;40.99;96944.84;2091941;28;20199;-64
2022/10/05 12:42:04;;;;;;;3.35;1.30;;;;;;;29.44;40.22;96954.38;2091835;28;20176;-64
2022/10/05 12:43:22;;;;;;;8.73;1.40;;;;;;;29.18;39.83;96944.78;2092423;28;20972;-64
2022/10/05 12:44:42;;;;;;;2.53;1.00;;;;;;;29.85;38.95;96945.91;2092561;28;20282;-64
2022/10/05 12:45:55;;;;;;;2.05;1.17;;;;;;;29.47;40.92;96938.72;2092969;28;20544;-64
2022/10/05 12:47:17;;;;;;;3.95;1.45;;;;;;;29.86;40.87;96942.22;2089875;28;20228;-64
2022/10/05 12:48:30;;;;;;;3.30;1.70;;;;;;;29.65;42.11;96942.94;2091093;28;20751;-64
2022/10/05 12:49:40;;;;;;;2.60;1.20;;;;;;;30.03;41.58;96944.75;2093002;28;20587;-64
2022/10/05 12:50:48;;;;;;;6.93;1.80;;;;;;;30.73;41.02;96937.25;2092931;28;20235;-64
2022/10/05 12:51:58;;;;;;;2.47;1.20;;;;;;;30.68;41.10;96945.88;2080250;28;20244;-64
2022/10/05 12:53:39;;;;;;;4.22;1.73;;;;;;;30.08;41.41;96935.13;2090284;28;20336;-64
2022/10/05 12:54:47;;;;;;;6.20;1.42;;;;;;;29.65;42.75;96942.94;2092024;28;20699;-66
2022/10/05 12:55:53;;;;;;;5.95;1.50;;;;;;;30.08;43.47;96927.06;2093024;28;20295;-63
2022/10/05 12:57:03;;;;;;;4.00;1.70;;;;;;;30.31;43.23;96939.59;2082495;28;20239;-65
2022/10/05 12:58:27;;;;;;;3.87;2.30;;;;;;;31.00;41.96;96943.75;2092256;28;20440;-65
2022/10/05 12:59:46;;;;;;;4.53;2.10;;;;;;;31.54;40.53;96946.97;2092635;28;20902;-65
2022/10/05 13:01:07;;;;;;;8.10;1.50;;;;;;;30.56;41.94;96939.31;2093071;28;20543;-65
2022/10/05 13:02:24;;;;;;;2.23;1.60;;;;;;;31.04;41.17;96942.34;2096488;28;20700;-65
2022/10/05 13:04:02;;;;;;;7.70;1.83;;;;;;;30.35;42.33;96940.03;2095364;28;20428;-65
2022/10/05 13:05:09;;;;;;;5.00;1.70;;;;;;;29.65;42.53;96945.63;2093564;28;20467;-65
2022/10/05 13:06:20;;;;;;;3.30;1.60;;;;;;;30.24;42.53;96939.47;2093448;28;20445;-65
2022/10/05 13:07:37;;;;;;;8.60;2.23;;;;;;;29.76;43.62;96953.25;2082411;28;20468;-65
2022/10/05 13:09:16;;;;;;;5.47;1.53;;;;;;;30.33;42.39;96940.22;2093302;28;20504;-65
2022/10/05 13:10:39;;;;;;;7.50;1.40;;;;;;;30.88;41.74;96937.19;2094430;28;20511;-65
2022/10/05 13:11:47;;;;;;;3.20;1.67;;;;;;;30.35;42.40;96945.41;2081636;28;20471;-65
2022/10/05 13:18:03;;;;;;;8.43;1.40;;;;;;;29.92;42.69;96954.97;2090747;28;20453;-65
2022/10/05 13:19:20;;;;;;;2.93;1.40;;;;;;;29.46;43.11;96941.59;2092963;28;20816;-65
2022/10/05 13:20:34;;;;;;;6.40;1.80;;;;;;;30.31;42.05;96934.19;2093176;28;20478;-65
2022/10/05 13:21:54;;;;;;;4.70;1.57;;;;;;;30.29;41.67;96947.00;2082513;28;20519;-64
2022/10/05 13:23:08;;;;;;;9.30;1.87;;;;;;;31.06;40.30;96929.53;2091963;28;20496;-64
2022/10/05 13:24:20;;;;;;;10.90;1.50;;;;;;;31.38;40.43;96946.22;2091142;28;20468;-65
2022/10/05 13:25:33;;;;;;;5.67;1.93;;;;;;;30.16;40.85;96942.28;2093477;28;20470;-65
2022/10/05 13:26:39;;;;;;;10.33;1.40;;;;;;;30.04;42.18;96941.06;2084152;28;20798;-65
2022/10/05 13:28:07;;;;;;;3.43;1.30;;;;;;;30.52;41.10;96919.97;2091345;28;20504;-65
2022/10/05 13:29:32;;;;;;;3.03;1.60;;;;;;;30.23;41.37;96945.06;2092612;28;21048;-65
2022/10/05 13:30:35;;;;;;;9.07;1.90;;;;;;;30.63;41.10;96940.22;2093140;28;20428;-65
2022/10/05 13:31:53;;;;;;;6.57;1.60;;;;;;;30.66;40.38;96945.22;2092637;28;20483;-65
2022/10/05 13:33:19;;;;;;;7.93;1.70;;;;;;;30.60;40.30;96948.66;2089938;28;20424;-65
2022/10/05 13:34:42;;;;;;;6.50;1.73;;;;;;;30.90;40.25;96944.06;2092744;28;20515;-64
2022/10/05 13:36:11;;;;;;;2.83;1.60;;;;;;;30.87;40.39;96930.97;2093511;28;20461;-64
2022/10/05 13:37:22;;;;;;;8.03;1.93;;;;;;;30.85;39.53;96941.09;2076100;28;20469;-65
2022/10/05 13:38:33;;;;;;;4.03;1.33;;;;;;;30.81;39.69;96941.69;2086303;28;20522;-65
2022/10/05 13:40:05;;;;;;;4.30;1.63;;;;;;;30.64;39.86;96938.34;2092779;28;20512;-64
2022/10/05 13:41:24;;;;;;;7.13;1.83;;;;;;;30.48;40.54;96944.81;2092527;28;20483;-64
2022/10/05 13:42:41;;;;;;;13.33;1.63;;;;;;;30.35;41.24;96938.19;2091973;28;20457;-65
2022/10/05 13:43:57;;;;;;;7.80;1.37;;;;;;;30.44;41.40;96933.53;2093390;28;20475;-66
2022/10/05 13:45:09;;;;;;;2.70;1.50;;;;;;;30.49;41.11;96932.97;2093019;28;20432;-64
2022/10/05 13:46:39;;;;;;;3.83;1.53;;;;;;;30.64;40.54;96935.66;2093358;28;21029;-66
2022/10/05 13:48:00;;;;;;;25.07;12.47;;;;;;;30.62;40.32;96935.84;2088196;28;20973;-64
2022/10/05 14:00:25;;;;;;;9.83;1.53;;;;;;;29.76;41.27;96936.25;2092236;28;20444;-64
2022/10/05 14:01:33;;;;;;;7.40;1.10;;;;;;;29.99;40.64;96941.59;2092186;28;20438;-64
2022/10/05 14:02:40;;;;;;;3.13;1.50;;;;;;;29.79;40.23;96946.66;2093320;28;20495;-64
2022/10/05 14:04:12;;;;;;;2.70;1.20;;;;;;;28.75;41.75;96936.34;2092264;28;20428;-63
2022/10/05 14:05:21;;;;;;;7.60;1.57;;;;;;;28.63;42.29;96934.00;2091804;28;20440;-63
2022/10/05 14:06:28;;;;;;;3.70;1.37;;;;;;;28.55;42.43;96936.72;2094205;28;20444;-64
2022/10/05 14:07:37;;;;;;;2.60;1.27;;;;;;;28.92;42.01;96939.75;2091963;28;20434;-63
2022/10/05 14:08:52;;;;;;;6.87;1.67;;;;;;;29.14;42.39;96941.63;2091969;28;20568;-65
2022/10/05 14:09:53;;;;;;;3.77;1.50;;;;;;;29.12;42.43;96932.88;2094223;28;21047;-64
2022/10/05 14:10:55;;;;;;;5.20;1.70;;;;;;;28.97;42.93;96940.06;2094407;28;20844;-65
2022/10/05 14:36:39;;;;;;;3.80;1.60;;;;;;;28.15;42.71;96923.28;2081611;28;20235;-64
2022/10/05 14:37:49;;;;;;;4.57;1.30;;;;;;;28.55;42.56;96923.28;2092248;28;20200;-64
2022/10/05 14:38:56;;;;;;;2.70;1.70;;;;;;;28.51;42.93;96925.47;2091032;28;20457;-66
2022/10/05 14:40:19;;;;;;;2.80;1.37;;;;;;;28.62;43.16;96924.28;2091460;28;20220;-65
2022/10/05 14:41:26;;;;;;;8.20;2.40;;;;;;;28.58;43.75;96916.72;2090477;28;20417;-65
2022/10/05 14:42:39;;;;;;;3.67;1.40;;;;;;;28.64;43.06;96898.06;2092365;28;20930;-65
2022/10/05 14:44:17;;;;;;;4.20;1.53;;;;;;;27.80;43.64;96917.31;2093016;28;20441;-65
2022/10/05 14:45:22;;;;;;;4.90;1.30;;;;;;;27.86;44.15;96915.81;2092428;28;21019;-65
2022/10/05 14:46:27;;;;;;;4.57;1.47;;;;;;;28.15;43.45;96917.06;2088844;28;20561;-65
2022/10/05 14:47:31;;;;;;;3.53;1.33;;;;;;;28.13;42.15;96919.09;2092293;28;20425;-65
2022/10/05 14:48:43;;;;;;;2.67;1.20;;;;;;;27.04;44.81;96911.28;2091766;28;20460;-65
2022/10/05 14:50:09;;;;;;;2.63;1.40;;;;;;;27.33;44.65;96909.97;2091692;28;20481;-65
2022/10/05 14:51:30;;;;;;;2.87;1.20;;;;;;;28.25;44.27;96914.19;2090835;28;20195;-65
2022/10/05 14:52:37;;;;;;;2.03;1.20;;;;;;;28.31;43.23;96913.50;2092621;28;21011;-65
2022/10/05 14:53:42;;;;;;;2.63;1.70;;;;;;;28.60;42.91;96920.09;2092539;28;20842;-65
2022/10/05 14:55:20;;;;;;;4.50;1.90;;;;;;;28.76;42.17;96917.34;2092443;28;20961;-64
2022/10/05 14:56:39;;;;;;;2.07;1.37;;;;;;;28.66;40.57;96919.38;2086359;28;20511;-65
2022/10/05 14:57:57;;;;;;;4.03;1.00;;;;;;;28.59;38.86;96913.88;2092940;28;20464;-65
2022/10/05 14:59:13;;;;;;;5.40;1.20;;;;;;;28.39;39.04;96910.78;2093456;28;20425;-65
2022/10/05 15:12:04;;;;;;;3.05;0.88;;;;;;;26.04;40.25;96910.09;2080809;28;20192;-65
2022/10/05 15:13:14;;;;;;;7.20;0.90;;;;;;;25.88;40.04;96900.13;2091201;28;20231;-67
2022/10/05 15:14:23;;;;;;;2.38;0.70;;;;;;;25.86;40.39;96896.78;2091044;28;20199;-66
2022/10/05 15:15:31;;;;;;;2.22;1.08;;;;;;;26.01;40.02;96898.88;2092695;28;20279;-66
2022/10/05 15:16:37;;;;;;;2.65;1.00;;;;;;;26.03;39.76;96902.22;2093182;28;20243;-66
2022/10/05 15:17:46;;;;;;;2.75;1.08;;;;;;;25.97;40.19;96892.16;2093446;28;20275;-67
2022/10/05 15:24:02;;;;;;;1.60;0.88;;;;;;;25.90;39.98;96900.81;2091754;28;20205;-66
2022/10/05 15:25:14;;;;;;;3.03;1.00;;;;;;;25.72;39.29;96900.03;2093858;28;20192;-67
2022/10/05 15:26:47;;;;;;;2.63;1.08;;;;;;;25.49;40.02;96903.22;2092579;28;20241;-66
2022/10/05 15:28:14;;;;;;;3.88;1.00;;;;;;;25.32;39.72;96899.56;2092899;28;20275;-67
2022/10/05 15:29:35;;;;;;;1.75;1.10;;;;;;;25.07;39.82;96906.53;2087772;28;20231;-68
2022/10/05 15:30:41;;;;;;;2.00;1.00;;;;;;;24.82;40.36;96895.63;2092716;28;20211;-66
2022/10/05 15:32:01;;;;;;;7.55;0.90;;;;;;;24.54;40.65;96906.31;2090362;28;20196;-67
2022/10/05 15:33:08;;;;;;;2.33;1.17;;;;;;;24.35;41.20;96904.59;2092432;28;20191;-67
2022/10/05 15:34:19;;;;;;;2.72;1.10;;;;;;;24.28;40.96;96895.53;2089932;28;20192;-66
2022/10/05 15:35:44;;;;;;;3.92;1.00;;;;;;;24.19;41.14;96910.59;2091626;28;20279;-67
2022/10/05 15:36:57;;;;;;;6.38;1.13;;;;;;;23.94;41.20;96909.44;2082210;28;20243;-67
2022/10/05 15:38:11;;;;;;;4.70;1.20;;;;;;;23.77;40.94;96901.16;2092587;28;20304;-66
2022/10/05 15:39:35;;;;;;;3.10;0.90;;;;;;;23.65;41.23;96910.31;2093093;28;20282;-67
2022/10/05 15:40:57;;;;;;;6.05;1.38;;;;;;;23.74;41.42;96906.78;2091796;28;20196;-67
2022/10/05 15:49:18;;;;;;;1.88;1.20;;;;;;;23.27;40.84;96909.41;2091301;28;20277;-67
2022/10/05 15:50:27;;;;;;;3.28;1.30;;;;;;;23.22;41.48;96915.16;2089902;28;20796;-68
2022/10/05 15:51:59;;;;;;;3.08;1.30;;;;;;;23.14;41.13;96893.69;2084274;28;20200;-68
2022/10/05 15:53:20;;;;;;;3.90;0.98;;;;;;;23.23;40.56;96914.16;2090831;28;20200;-70
2022/10/05 15:54:58;;;;;;;1.83;1.08;;;;;;;23.07;41.42;96916.53;2091149;28;20223;-70
2022/10/05 15:56:11;;;;;;;5.22;0.93;;;;;;;23.22;41.02;96917.81;2090455;28;20632;-69
2022/10/05 15:57:33;;;;;;;3.58;1.10;;;;;;;23.23;41.17;96916.00;2081208;28;20737;-69
2022/10/05 15:58:37;;;;;;;6.53;1.20;;;;;;;23.08;40.98;96920.88;2091705;28;20288;-70
2022/10/05 15:59:48;;;;;;;3.50;1.10;;;;;;;23.05;41.62;96911.34;2090558;28;20199;-69
2022/10/05 16:01:18;;;;;;;2.55;1.15;;;;;;;23.03;41.50;96921.28;2093459;28;20233;-70
2022/10/05 16:02:27;;;;;;;4.22;1.20;;;;;;;23.04;41.58;96909.66;2083839;28;20235;-71
2022/10/05 16:03:49;;;;;;;2.88;1.20;;;;;;;22.82;41.92;96914.28;2091687;28;20246;-71
2022/10/05 16:08:49;;;;;;;3.78;0.90;;;;;;;22.63;42.44;96912.44;2095138;28;20191;-69
2022/10/05 16:10:20;;;;;;;1.70;0.90;;;;;;;22.51;42.97;96932.16;2078989;28;20288;-69
2022/10/05 16:11:43;;;;;;;5.32;1.20;;;;;;;22.34;42.35;96923.81;2079594;28;20212;-73
2022/10/05 16:13:06;;;;;;;2.50;1.15;;;;;;;22.60;42.53;96925.16;2078839;28;20463;-73
2022/10/05 16:14:20;;;;;;;3.63;1.15;;;;;;;22.69;42.31;96931.50;2079885;28;20656;-70
2022/10/05 16:15:36;;;;;;;4.32;0.95;;;;;;;22.64;42.45;96929.25;2072128;28;20731;-71
2022/10/05 16:16:57;;;;;;;3.58;0.95;;;;;;;22.70;42.57;96928.69;2074594;28;20240;-71
2022/10/05 16:18:29;;;;;;;9.13;0.90;;;;;;;22.87;42.54;96932.50;2080628;28;20253;-69
2022/10/05 16:19:45;;;;;;;6.15;1.00;;;;;;;22.91;42.50;96928.56;2080634;28;20288;-69
2022/10/05 16:20:54;;;;;;;2.30;1.30;;;;;;;22.85;42.80;96928.31;2080695;28;20240;-68
2022/10/05 16:22:19;;;;;;;2.85;1.00;;;;;;;22.78;42.34;96933.34;2070473;28;20224;-68
2022/10/05 16:23:33;;;;;;;2.35;1.05;;;;;;;22.93;42.81;96936.41;2080470;28;20239;-68
2022/10/05 16:25:02;;;;;;;1.85;0.98;;;;;;;22.76;42.83;96933.47;2080553;28;20299;-68
2022/10/05 16:26:30;;;;;;;4.50;0.90;;;;;;;22.81;43.13;96933.88;2081446;28;21070;-68
2022/10/05 16:28:00;;;;;;;12.95;8.63;;;;;;;22.83;42.96;96936.44;2079967;28;20201;-67
2022/10/05 16:29:23;;;;;;;4.75;2.75;;;;;;;22.43;43.08;96934.66;2080575;28;20556;-68
2022/10/05 16:30:25;;;;;;;3.45;0.90;;;;;;;22.16;44.00;96939.56;2080547;28;20323;-67
2022/10/05 16:31:36;;;;;;;6.07;1.48;;;;;;;22.04;44.78;96947.78;2078581;28;20228;-68
2022/10/05 16:33:02;;;;;;;5.53;1.25;;;;;;;21.70;45.24;96943.56;2080511;28;20387;-68
2022/10/05 16:34:29;;;;;;;4.00;1.05;;;;;;;21.50;45.84;96946.03;2080406;28;20288;-67
2022/10/05 16:35:45;;;;;;;1.90;1.00;;;;;;;21.31;46.17;96948.59;2078898;28;20292;-68
2022/10/05 16:36:59;;;;;;;2.97;1.23;;;;;;;21.15;46.43;96952.50;2068254;28;20653;-67
